Jaipur, India
Current Conditions -  °F | °C
As of 11:30 AM on Thursday 23 Oct 2014 (Local Time) from VIJP Reporting Station
Haze Haze  
Wind Chill: 91°   Ceiling: Unl
Heat Index: 91°   Visibility: 1.5mi
Dew Point: 55°   Wind: 3mph
Humidity: 29%   Direction: NA
Pressure: 30"   Gusts: NA
Location:  26.91°N, 75.8°E
Report Text: VIJP 230630Z VRB03KT 2500 HZ NSC 33/13 Q1016 NOSIG
Loading
Personal Weather Stations






























Interactive Weather Map New forecast layout! Learn more

10-Day Weather Forecast

Advertisements
Track Severe Weather on mobile